• Join FlightAware (Why Join?)
  • Login
  • US Flag 
09:15AM EDT


 

Airport Tracker/Info


-or-


 

Live Flight TrackerFlight Track Log ✈ FSR411 ✈ 05-Sep-2013 ✈ KRFD - KDET

Flight Track Log - Related Links

Times and Time Zones

All times are in EDT time to prevent confusion due to time zone crossing. See the FSR411 flight status page for this flight to view local times or setup timezone preferences in your user account.

Time Position Orientation Groundspeed Altitude Reporting Facility
EDT Latitude Longitude Course Direction KTS MPH feet Rate Location/Type
02:50PM 42.2578 -89.0297 85° East 248 285 4,100  Level Chicago Center
02:51PM 42.3039 -88.9539 51° Northeast 278 320 7,200 3,120 Climbing Chicago Center
02:52PM 42.3039 -88.8378 90° East 293 337 10,600 2,880 Climbing Chicago Center
02:53PM 42.3047 -88.7064 89° East 342 394 13,200 2,880 Climbing Chicago Center
02:54PM 42.3089 -88.5569 88° East 395 455 16,600 3,060 Climbing Chicago Center
02:55PM 42.2340 -88.4413 85° East  Level Estimated
02:55PM 42.3311 -88.4047 79° East 408 470 19,600  Level Chicago Center
02:56PM 42.3533 -88.2142 81° East 427 491 22,800 2,700 Climbing Chicago Center
02:57PM 42.3742 -88.0506 80° East 439 505 25,300 1,980 Climbing Chicago Center
02:58PM 42.3925 -87.8806 82° East 451 519 26,900 780 Climbing Chicago Center
03:00PM 42.4142 -87.7017 81° East 475 547 27,000  Climbing Chicago Center
03:01PM 42.4333 -87.5197 82° East 486 559 27,000  Level Chicago Center
03:02PM 42.4542 -87.3411 81° East 485 558 27,000  Level Chicago Center
03:03PM 42.4778 -87.1250 82° East 485 558 27,000  Level Chicago Center
03:04PM 42.4978 -86.9469 81° East 483 556 27,000  Level Chicago Center
03:05PM 42.5100 -86.7658 85° East 484 557 27,000  Level Chicago Center
03:06PM 42.5061 -86.5906 92° East 489 563 27,000  Level Chicago Center
03:07PM 42.5011 -86.3717 92° East 489 563 27,000  Level Chicago Center
03:08PM 42.4989 -86.1917 91° East 486 559 27,000 -480 Level Chicago Center
03:09PM 42.4978 -86.0075 90° East 491 565 26,100 -1,200 Descending Chicago Center
03:10PM 42.4975 -85.8286 90° East 483 556 24,600 -1,380 Descending Chicago Center
03:11PM 42.5047 -85.6561 87° East 472 543 23,300 -1,500 Descending Chicago Center
03:12PM 42.5500 -85.4581 73° East 465 535 21,600 -1,140 Descending Chicago Center
03:13PM 42.5869 -85.2961 73° East 457 526 21,000 -300 Descending Chicago Center
03:14PM 42.6228 -85.1353 73° East 451 519 21,000  Level Chicago Center
03:15PM 42.6575 -84.9739 74° East 447 514 21,000 -180 Level Chicago Center
03:16PM 42.6925 -84.8131 73° East 447 514 20,700 -1,440 Descending Chicago Center
03:17PM 42.7197 -84.6208 79° East 439 505 18,100 -2,460 Descending Chicago Center
03:18PM 42.7153 -84.4575 92° East 438 504 15,700 -2,460 Descending Chicago Center
03:19PM 42.7119 -84.3275 92° East 418 481 13,600 -2,820 Descending Cleveland Center
03:20PM 42.7089 -84.2314 92° East 405 466 11,700 -2,460 Descending Cleveland Center
03:21PM 42.7111 -84.0872 89° East 329 379 9,400 -1,800 Descending Cleveland Center
03:22PM 42.7086 -83.9683 92° East 298 343 7,900 -1,740 Descending Cleveland Center
03:23PM 42.7117 -83.8611 88° East 285 328 6,000 -1,440 Descending Cleveland Center
03:24PM 42.7167 -83.7511 86° East 271 312 5,100 -540 Descending Cleveland Center
03:25PM 42.6942 -83.6569 108° East 281 323 5,000 -60 Descending Cleveland Center
03:26PM 42.6592 -83.5619 117° Southeast 281 323 5,000  Level Cleveland Center
03:27PM 42.6242 -83.4672 117° Southeast 275 316 5,000  Level Cleveland Center
03:28PM 42.5931 -83.3753 115° Southeast 270 311 5,000  Level Cleveland Center
03:29PM 42.5619 -83.2839 115° Southeast 271 312 5,000 -360 Level Cleveland Center
03:30PM 42.5247 -83.1753 115° Southeast 260 299 4,300 -480 Descending Cleveland Center
03:31PM 42.4956 -83.0867 114° Southeast 240 276 4,000 -960 Descending Cleveland Center
03:32PM 42.4592 -83.0261 129° Southeast 224 258 2,500 -1,020 Descending Cleveland Center
03:33PM 42.4192 -82.9514 126° Southeast 178 205 1,900 -480 Descending Cleveland Center
03:34PM 42.3858 -82.9531 182° South 160 184 1,600 -360 Descending Cleveland Center